sensor_id;sensor_type;location;lat;lon;timestamp;P1;durP1;ratioP1;P2;durP2;ratioP2
8297;SDS011;4187;42.778;23.242;2023-06-22T00:02:16;9.88;;;8.80;;
8297;SDS011;4187;42.778;23.242;2023-06-22T00:04:43;11.25;;;9.10;;
8297;SDS011;4187;42.778;23.242;2023-06-22T00:07:10;10.10;;;8.98;;
8297;SDS011;4187;42.778;23.242;2023-06-22T00:09:37;10.40;;;9.35;;
8297;SDS011;4187;42.778;23.242;2023-06-22T00:12:06;10.32;;;9.25;;
8297;SDS011;4187;42.778;23.242;2023-06-22T00:14:33;11.07;;;9.95;;
8297;SDS011;4187;42.778;23.242;2023-06-22T00:17:00;10.52;;;9.60;;
8297;SDS011;4187;42.778;23.242;2023-06-22T00:19:27;10.93;;;9.93;;
8297;SDS011;4187;42.778;23.242;2023-06-22T00:21:54;10.32;;;9.43;;
8297;SDS011;4187;42.778;23.242;2023-06-22T00:24:25;10.60;;;9.48;;
8297;SDS011;4187;42.778;23.242;2023-06-22T00:26:52;10.93;;;9.93;;
8297;SDS011;4187;42.778;23.242;2023-06-22T00:29:20;11.80;;;10.15;;
8297;SDS011;4187;42.778;23.242;2023-06-22T00:31:47;10.77;;;9.77;;
8297;SDS011;4187;42.778;23.242;2023-06-22T00:34:14;11.38;;;10.25;;
8297;SDS011;4187;42.778;23.242;2023-06-22T00:36:40;12.38;;;10.20;;
8297;SDS011;4187;42.778;23.242;2023-06-22T00:39:07;10.90;;;9.20;;
8297;SDS011;4187;42.778;23.242;2023-06-22T00:41:34;10.48;;;9.55;;
8297;SDS011;4187;42.778;23.242;2023-06-22T00:44:01;11.43;;;10.32;;
8297;SDS011;4187;42.778;23.242;2023-06-22T00:46:30;10.88;;;9.93;;
8297;SDS011;4187;42.778;23.242;2023-06-22T00:48:57;10.40;;;9.40;;
8297;SDS011;4187;42.778;23.242;2023-06-22T00:51:25;11.40;;;10.13;;
8297;SDS011;4187;42.778;23.242;2023-06-22T00:53:52;11.32;;;10.23;;
8297;SDS011;4187;42.778;23.242;2023-06-22T00:56:19;10.77;;;9.35;;
8297;SDS011;4187;42.778;23.242;2023-06-22T00:58:50;11.02;;;9.38;;
8297;SDS011;4187;42.778;23.242;2023-06-22T01:01:18;10.52;;;9.63;;
8297;SDS011;4187;42.778;23.242;2023-06-22T01:03:50;10.68;;;9.57;;
8297;SDS011;4187;42.778;23.242;2023-06-22T01:06:19;10.32;;;9.35;;
8297;SDS011;4187;42.778;23.242;2023-06-22T01:08:54;11.40;;;9.93;;
8297;SDS011;4187;42.778;23.242;2023-06-22T01:11:28;9.75;;;8.75;;
8297;SDS011;4187;42.778;23.242;2023-06-22T01:14:03;10.60;;;8.52;;
8297;SDS011;4187;42.778;23.242;2023-06-22T01:16:34;10.15;;;9.20;;
8297;SDS011;4187;42.778;23.242;2023-06-22T01:19:05;9.75;;;8.75;;
8297;SDS011;4187;42.778;23.242;2023-06-22T01:21:46;10.02;;;9.02;;
8297;SDS011;4187;42.778;23.242;2023-06-22T01:24:18;10.40;;;9.40;;
8297;SDS011;4187;42.778;23.242;2023-06-22T01:26:53;9.55;;;8.60;;
8297;SDS011;4187;42.778;23.242;2023-06-22T01:29:28;9.95;;;8.93;;
8297;SDS011;4187;42.778;23.242;2023-06-22T01:31:57;10.55;;;9.55;;
8297;SDS011;4187;42.778;23.242;2023-06-22T01:34:27;10.50;;;8.63;;
8297;SDS011;4187;42.778;23.242;2023-06-22T01:36:55;9.38;;;8.45;;
8297;SDS011;4187;42.778;23.242;2023-06-22T01:39:24;10.88;;;9.68;;
8297;SDS011;4187;42.778;23.242;2023-06-22T01:41:51;13.95;;;9.30;;
8297;SDS011;4187;42.778;23.242;2023-06-22T01:44:20;11.65;;;9.60;;
8297;SDS011;4187;42.778;23.242;2023-06-22T01:46:49;10.55;;;9.55;;
8297;SDS011;4187;42.778;23.242;2023-06-22T01:49:17;11.20;;;10.02;;
8297;SDS011;4187;42.778;23.242;2023-06-22T01:51:44;10.32;;;9.30;;
8297;SDS011;4187;42.778;23.242;2023-06-22T01:54:11;11.48;;;10.40;;
8297;SDS011;4187;42.778;23.242;2023-06-22T01:56:38;11.63;;;10.40;;
8297;SDS011;4187;42.778;23.242;2023-06-22T01:59:08;11.02;;;9.82;;
8297;SDS011;4187;42.778;23.242;2023-06-22T02:01:41;10.07;;;9.18;;
8297;SDS011;4187;42.778;23.242;2023-06-22T02:04:13;11.52;;;10.15;;
8297;SDS011;4187;42.778;23.242;2023-06-22T02:06:46;11.23;;;10.13;;
8297;SDS011;4187;42.778;23.242;2023-06-22T02:09:16;12.23;;;10.98;;
8297;SDS011;4187;42.778;23.242;2023-06-22T02:11:46;14.73;;;10.43;;
8297;SDS011;4187;42.778;23.242;2023-06-22T02:14:16;11.63;;;10.23;;
8297;SDS011;4187;42.778;23.242;2023-06-22T02:16:44;10.73;;;9.63;;
8297;SDS011;4187;42.778;23.242;2023-06-22T02:19:13;10.75;;;9.52;;
8297;SDS011;4187;42.778;23.242;2023-06-22T02:21:41;13.25;;;10.00;;
8297;SDS011;4187;42.778;23.242;2023-06-22T02:24:08;12.80;;;10.68;;
8297;SDS011;4187;42.778;23.242;2023-06-22T02:26:34;15.63;;;11.07;;
8297;SDS011;4187;42.778;23.242;2023-06-22T02:29:03;11.65;;;10.55;;
8297;SDS011;4187;42.778;23.242;2023-06-22T02:31:30;13.02;;;10.40;;
8297;SDS011;4187;42.778;23.242;2023-06-22T02:33:57;11.52;;;9.98;;
8297;SDS011;4187;42.778;23.242;2023-06-22T02:36:26;11.65;;;10.52;;
8297;SDS011;4187;42.778;23.242;2023-06-22T02:38:55;11.88;;;9.75;;
8297;SDS011;4187;42.778;23.242;2023-06-22T02:41:24;10.90;;;9.65;;
8297;SDS011;4187;42.778;23.242;2023-06-22T02:43:50;9.85;;;8.88;;
8297;SDS011;4187;42.778;23.242;2023-06-22T02:46:17;14.68;;;8.57;;
8297;SDS011;4187;42.778;23.242;2023-06-22T02:48:44;9.85;;;8.40;;
8297;SDS011;4187;42.778;23.242;2023-06-22T02:51:11;10.15;;;8.50;;
8297;SDS011;4187;42.778;23.242;2023-06-22T02:53:41;11.23;;;8.05;;
8297;SDS011;4187;42.778;23.242;2023-06-22T02:56:09;8.75;;;7.95;;
8297;SDS011;4187;42.778;23.242;2023-06-22T02:58:38;9.20;;;8.05;;
8297;SDS011;4187;42.778;23.242;2023-06-22T03:01:05;10.30;;;8.25;;
8297;SDS011;4187;42.778;23.242;2023-06-22T03:03:32;9.65;;;8.27;;
8297;SDS011;4187;42.778;23.242;2023-06-22T03:05:59;13.07;;;8.52;;
8297;SDS011;4187;42.778;23.242;2023-06-22T03:08:27;12.50;;;8.98;;
8297;SDS011;4187;42.778;23.242;2023-06-22T03:10:55;10.15;;;8.95;;
8297;SDS011;4187;42.778;23.242;2023-06-22T03:13:22;10.65;;;8.90;;
8297;SDS011;4187;42.778;23.242;2023-06-22T03:15:50;9.25;;;8.30;;
8297;SDS011;4187;42.778;23.242;2023-06-22T03:18:19;10.15;;;9.15;;
8297;SDS011;4187;42.778;23.242;2023-06-22T03:20:47;9.50;;;8.55;;
8297;SDS011;4187;42.778;23.242;2023-06-22T03:23:14;12.57;;;9.20;;
8297;SDS011;4187;42.778;23.242;2023-06-22T03:25:41;11.68;;;9.30;;
8297;SDS011;4187;42.778;23.242;2023-06-22T03:28:11;11.65;;;9.35;;
8297;SDS011;4187;42.778;23.242;2023-06-22T03:30:37;11.32;;;8.85;;
8297;SDS011;4187;42.778;23.242;2023-06-22T03:33:04;11.25;;;9.82;;
8297;SDS011;4187;42.778;23.242;2023-06-22T03:35:31;13.77;;;9.50;;
8297;SDS011;4187;42.778;23.242;2023-06-22T03:37:58;10.00;;;9.07;;
8297;SDS011;4187;42.778;23.242;2023-06-22T03:40:25;10.02;;;8.70;;
8297;SDS011;4187;42.778;23.242;2023-06-22T03:42:52;10.40;;;9.30;;
8297;SDS011;4187;42.778;23.242;2023-06-22T03:45:20;9.73;;;8.73;;
8297;SDS011;4187;42.778;23.242;2023-06-22T03:47:47;10.63;;;9.07;;
8297;SDS011;4187;42.778;23.242;2023-06-22T03:50:14;10.27;;;9.13;;
8297;SDS011;4187;42.778;23.242;2023-06-22T03:52:40;11.35;;;10.23;;
8297;SDS011;4187;42.778;23.242;2023-06-22T03:55:08;10.70;;;9.60;;
8297;SDS011;4187;42.778;23.242;2023-06-22T03:57:35;11.23;;;9.73;;
8297;SDS011;4187;42.778;23.242;2023-06-22T04:00:02;14.40;;;10.30;;
8297;SDS011;4187;42.778;23.242;2023-06-22T04:02:32;11.07;;;9.75;;
8297;SDS011;4187;42.778;23.242;2023-06-22T04:04:59;12.35;;;10.80;;
8297;SDS011;4187;42.778;23.242;2023-06-22T04:07:26;12.10;;;9.70;;
8297;SDS011;4187;42.778;23.242;2023-06-22T04:09:53;12.77;;;10.40;;
8297;SDS011;4187;42.778;23.242;2023-06-22T04:12:19;12.70;;;10.57;;
8297;SDS011;4187;42.778;23.242;2023-06-22T04:14:46;10.80;;;9.77;;
8297;SDS011;4187;42.778;23.242;2023-06-22T04:17:13;11.75;;;10.45;;
8297;SDS011;4187;42.778;23.242;2023-06-22T04:19:42;12.35;;;10.90;;
8297;SDS011;4187;42.778;23.242;2023-06-22T04:22:09;11.88;;;10.88;;
8297;SDS011;4187;42.778;23.242;2023-06-22T04:24:35;12.02;;;10.75;;
8297;SDS011;4187;42.778;23.242;2023-06-22T04:27:02;14.63;;;11.30;;
8297;SDS011;4187;42.778;23.242;2023-06-22T04:29:30;11.82;;;10.65;;
8297;SDS011;4187;42.778;23.242;2023-06-22T04:31:56;11.73;;;10.40;;
8297;SDS011;4187;42.778;23.242;2023-06-22T04:34:28;12.25;;;10.68;;
8297;SDS011;4187;42.778;23.242;2023-06-22T04:36:56;16.42;;;10.93;;
8297;SDS011;4187;42.778;23.242;2023-06-22T04:39:23;13.75;;;11.20;;
8297;SDS011;4187;42.778;23.242;2023-06-22T04:41:52;13.75;;;10.57;;
8297;SDS011;4187;42.778;23.242;2023-06-22T04:44:20;11.43;;;10.43;;
8297;SDS011;4187;42.778;23.242;2023-06-22T04:46:50;11.27;;;10.18;;
8297;SDS011;4187;42.778;23.242;2023-06-22T04:49:19;12.25;;;11.00;;
8297;SDS011;4187;42.778;23.242;2023-06-22T04:51:47;12.13;;;10.75;;
8297;SDS011;4187;42.778;23.242;2023-06-22T04:54:18;12.23;;;11.02;;
8297;SDS011;4187;42.778;23.242;2023-06-22T04:56:45;11.48;;;10.43;;
8297;SDS011;4187;42.778;23.242;2023-06-22T04:59:11;11.82;;;10.68;;
8297;SDS011;4187;42.778;23.242;2023-06-22T05:01:39;12.55;;;11.30;;
8297;SDS011;4187;42.778;23.242;2023-06-22T05:04:06;11.45;;;10.40;;
8297;SDS011;4187;42.778;23.242;2023-06-22T05:06:34;12.52;;;11.27;;
8297;SDS011;4187;42.778;23.242;2023-06-22T05:09:01;15.30;;;12.00;;
8297;SDS011;4187;42.778;23.242;2023-06-22T05:11:29;12.60;;;11.40;;
8297;SDS011;4187;42.778;23.242;2023-06-22T05:13:56;15.40;;;12.18;;
8297;SDS011;4187;42.778;23.242;2023-06-22T05:16:23;14.70;;;11.90;;
8297;SDS011;4187;42.778;23.242;2023-06-22T05:18:54;22.45;;;11.80;;
8297;SDS011;4187;42.778;23.242;2023-06-22T05:21:21;21.90;;;13.13;;
8297;SDS011;4187;42.778;23.242;2023-06-22T05:23:49;13.05;;;11.60;;
8297;SDS011;4187;42.778;23.242;2023-06-22T05:26:17;13.02;;;11.75;;
8297;SDS011;4187;42.778;23.242;2023-06-22T05:28:45;23.33;;;12.95;;
8297;SDS011;4187;42.778;23.242;2023-06-22T05:31:13;19.23;;;12.68;;
8297;SDS011;4187;42.778;23.242;2023-06-22T05:33:40;14.90;;;12.45;;
8297;SDS011;4187;42.778;23.242;2023-06-22T05:36:08;14.20;;;12.32;;
8297;SDS011;4187;42.778;23.242;2023-06-22T05:38:35;18.52;;;12.00;;
8297;SDS011;4187;42.778;23.242;2023-06-22T05:41:02;14.50;;;13.07;;
8297;SDS011;4187;42.778;23.242;2023-06-22T05:43:29;13.82;;;12.38;;
8297;SDS011;4187;42.778;23.242;2023-06-22T05:46:00;14.10;;;12.88;;
8297;SDS011;4187;42.778;23.242;2023-06-22T05:48:27;15.05;;;12.50;;
8297;SDS011;4187;42.778;23.242;2023-06-22T05:50:54;17.58;;;13.00;;
8297;SDS011;4187;42.778;23.242;2023-06-22T05:53:21;15.55;;;12.50;;
8297;SDS011;4187;42.778;23.242;2023-06-22T05:55:48;15.55;;;12.85;;
8297;SDS011;4187;42.778;23.242;2023-06-22T05:58:15;18.08;;;13.13;;
8297;SDS011;4187;42.778;23.242;2023-06-22T06:00:42;16.23;;;12.70;;
8297;SDS011;4187;42.778;23.242;2023-06-22T06:03:10;16.92;;;12.88;;
8297;SDS011;4187;42.778;23.242;2023-06-22T06:05:37;13.25;;;11.20;;
8297;SDS011;4187;42.778;23.242;2023-06-22T06:08:05;13.20;;;11.30;;
8297;SDS011;4187;42.778;23.242;2023-06-22T06:10:32;12.52;;;10.63;;
8297;SDS011;4187;42.778;23.242;2023-06-22T06:12:59;11.52;;;10.43;;
8297;SDS011;4187;42.778;23.242;2023-06-22T06:15:29;13.40;;;12.07;;
8297;SDS011;4187;42.778;23.242;2023-06-22T06:17:56;13.05;;;10.80;;
8297;SDS011;4187;42.778;23.242;2023-06-22T06:20:24;12.93;;;11.73;;
8297;SDS011;4187;42.778;23.242;2023-06-22T06:22:53;14.48;;;12.18;;
8297;SDS011;4187;42.778;23.242;2023-06-22T06:25:19;13.35;;;12.15;;
8297;SDS011;4187;42.778;23.242;2023-06-22T06:27:47;12.85;;;11.32;;
8297;SDS011;4187;42.778;23.242;2023-06-22T06:30:16;12.98;;;11.63;;
8297;SDS011;4187;42.778;23.242;2023-06-22T06:32:44;13.63;;;11.70;;
8297;SDS011;4187;42.778;23.242;2023-06-22T06:35:13;15.30;;;11.02;;
8297;SDS011;4187;42.778;23.242;2023-06-22T06:37:42;13.02;;;10.85;;
8297;SDS011;4187;42.778;23.242;2023-06-22T06:40:11;11.60;;;10.48;;
8297;SDS011;4187;42.778;23.242;2023-06-22T06:42:39;13.48;;;11.93;;
8297;SDS011;4187;42.778;23.242;2023-06-22T06:45:07;11.98;;;10.57;;
8297;SDS011;4187;42.778;23.242;2023-06-22T06:47:34;12.27;;;10.40;;
8297;SDS011;4187;42.778;23.242;2023-06-22T06:50:01;12.43;;;11.23;;
8297;SDS011;4187;42.778;23.242;2023-06-22T06:52:28;14.50;;;10.23;;
8297;SDS011;4187;42.778;23.242;2023-06-22T06:54:59;14.32;;;11.07;;
8297;SDS011;4187;42.778;23.242;2023-06-22T06:57:26;11.90;;;10.63;;
8297;SDS011;4187;42.778;23.242;2023-06-22T06:59:53;10.85;;;9.60;;
8297;SDS011;4187;42.778;23.242;2023-06-22T07:02:20;10.80;;;9.40;;
8297;SDS011;4187;42.778;23.242;2023-06-22T07:04:47;13.07;;;10.35;;
8297;SDS011;4187;42.778;23.242;2023-06-22T07:07:14;11.80;;;9.65;;
8297;SDS011;4187;42.778;23.242;2023-06-22T07:09:41;11.48;;;10.57;;
8297;SDS011;4187;42.778;23.242;2023-06-22T07:12:10;10.57;;;9.65;;
8297;SDS011;4187;42.778;23.242;2023-06-22T07:14:37;12.57;;;10.00;;
8297;SDS011;4187;42.778;23.242;2023-06-22T07:17:03;11.00;;;9.48;;
8297;SDS011;4187;42.778;23.242;2023-06-22T07:19:32;10.23;;;9.32;;
8297;SDS011;4187;42.778;23.242;2023-06-22T07:21:59;11.15;;;9.55;;
8297;SDS011;4187;42.778;23.242;2023-06-22T07:24:26;11.10;;;9.32;;
8297;SDS011;4187;42.778;23.242;2023-06-22T07:26:53;10.27;;;9.35;;
8297;SDS011;4187;42.778;23.242;2023-06-22T07:29:21;11.75;;;9.02;;
8297;SDS011;4187;42.778;23.242;2023-06-22T07:31:49;10.90;;;9.25;;
8297;SDS011;4187;42.778;23.242;2023-06-22T07:34:16;11.32;;;10.18;;
8297;SDS011;4187;42.778;23.242;2023-06-22T07:36:43;10.73;;;9.75;;
8297;SDS011;4187;42.778;23.242;2023-06-22T07:39:10;10.40;;;9.13;;
8297;SDS011;4187;42.778;23.242;2023-06-22T07:41:38;11.00;;;10.00;;
8297;SDS011;4187;42.778;23.242;2023-06-22T07:44:05;12.73;;;9.88;;
8297;SDS011;4187;42.778;23.242;2023-06-22T07:46:35;11.57;;;10.00;;
8297;SDS011;4187;42.778;23.242;2023-06-22T07:49:02;10.82;;;9.88;;
8297;SDS011;4187;42.778;23.242;2023-06-22T07:51:29;10.38;;;9.48;;
8297;SDS011;4187;42.778;23.242;2023-06-22T07:53:55;13.05;;;10.05;;
8297;SDS011;4187;42.778;23.242;2023-06-22T07:56:22;13.23;;;10.00;;
8297;SDS011;4187;42.778;23.242;2023-06-22T07:58:49;11.90;;;10.80;;
8297;SDS011;4187;42.778;23.242;2023-06-22T08:01:16;11.50;;;10.40;;
8297;SDS011;4187;42.778;23.242;2023-06-22T08:03:47;10.77;;;9.90;;
8297;SDS011;4187;42.778;23.242;2023-06-22T08:06:14;11.13;;;10.13;;
8297;SDS011;4187;42.778;23.242;2023-06-22T08:08:41;11.70;;;10.63;;
8297;SDS011;4187;42.778;23.242;2023-06-22T08:11:08;11.20;;;10.30;;
8297;SDS011;4187;42.778;23.242;2023-06-22T08:13:35;11.70;;;9.52;;
8297;SDS011;4187;42.778;23.242;2023-06-22T08:16:02;11.07;;;10.13;;
8297;SDS011;4187;42.778;23.242;2023-06-22T08:18:29;11.63;;;10.48;;
8297;SDS011;4187;42.778;23.242;2023-06-22T08:20:57;11.35;;;10.25;;
8297;SDS011;4187;42.778;23.242;2023-06-22T08:23:24;12.20;;;10.13;;
8297;SDS011;4187;42.778;23.242;2023-06-22T08:25:51;13.10;;;10.40;;
8297;SDS011;4187;42.778;23.242;2023-06-22T08:28:18;10.27;;;9.45;;
8297;SDS011;4187;42.778;23.242;2023-06-22T08:30:45;11.23;;;9.25;;
8297;SDS011;4187;42.778;23.242;2023-06-22T08:33:12;12.82;;;10.02;;
8297;SDS011;4187;42.778;23.242;2023-06-22T08:35:39;10.45;;;9.45;;
8297;SDS011;4187;42.778;23.242;2023-06-22T08:38:07;10.25;;;9.27;;
8297;SDS011;4187;42.778;23.242;2023-06-22T08:40:34;10.45;;;9.38;;
8297;SDS011;4187;42.778;23.242;2023-06-22T08:43:00;10.07;;;9.15;;
8297;SDS011;4187;42.778;23.242;2023-06-22T08:45:27;10.27;;;9.27;;
8297;SDS011;4187;42.778;23.242;2023-06-22T08:47:54;11.95;;;9.88;;
8297;SDS011;4187;42.778;23.242;2023-06-22T08:50:21;10.88;;;9.98;;
8297;SDS011;4187;42.778;23.242;2023-06-22T08:52:48;9.80;;;9.00;;
8297;SDS011;4187;42.778;23.242;2023-06-22T08:55:17;9.40;;;8.60;;
8297;SDS011;4187;42.778;23.242;2023-06-22T08:57:44;8.52;;;7.75;;
8297;SDS011;4187;42.778;23.242;2023-06-22T09:00:11;9.10;;;8.30;;
8297;SDS011;4187;42.778;23.242;2023-06-22T09:02:42;8.50;;;7.70;;
8297;SDS011;4187;42.778;23.242;2023-06-22T09:05:09;9.38;;;8.57;;
8297;SDS011;4187;42.778;23.242;2023-06-22T09:07:36;9.40;;;8.57;;
8297;SDS011;4187;42.778;23.242;2023-06-22T09:10:03;8.65;;;7.50;;
8297;SDS011;4187;42.778;23.242;2023-06-22T09:12:32;8.35;;;7.63;;
8297;SDS011;4187;42.778;23.242;2023-06-22T09:14:59;8.85;;;7.95;;
8297;SDS011;4187;42.778;23.242;2023-06-22T09:17:27;8.00;;;7.38;;
8297;SDS011;4187;42.778;23.242;2023-06-22T09:19:54;8.95;;;8.05;;
8297;SDS011;4187;42.778;23.242;2023-06-22T09:22:21;7.85;;;7.25;;
8297;SDS011;4187;42.778;23.242;2023-06-22T09:24:48;8.48;;;7.45;;
8297;SDS011;4187;42.778;23.242;2023-06-22T09:27:18;8.38;;;7.57;;
8297;SDS011;4187;42.778;23.242;2023-06-22T09:29:46;10.18;;;7.63;;
8297;SDS011;4187;42.778;23.242;2023-06-22T09:32:13;8.73;;;7.93;;
8297;SDS011;4187;42.778;23.242;2023-06-22T09:34:40;8.15;;;7.55;;
8297;SDS011;4187;42.778;23.242;2023-06-22T09:37:07;8.13;;;7.32;;
8297;SDS011;4187;42.778;23.242;2023-06-22T09:39:34;8.10;;;7.40;;
8297;SDS011;4187;42.778;23.242;2023-06-22T09:44:39;9.38;;;7.93;;
8297;SDS011;4187;42.778;23.242;2023-06-22T09:47:09;8.35;;;7.45;;
8297;SDS011;4187;42.778;23.242;2023-06-22T09:49:36;7.68;;;7.07;;
8297;SDS011;4187;42.778;23.242;2023-06-22T09:52:03;8.95;;;8.15;;
8297;SDS011;4187;42.778;23.242;2023-06-22T09:54:30;8.52;;;7.82;;
8297;SDS011;4187;42.778;23.242;2023-06-22T09:56:57;10.35;;;7.68;;
8297;SDS011;4187;42.778;23.242;2023-06-22T09:59:24;8.40;;;7.65;;
8297;SDS011;4187;42.778;23.242;2023-06-22T10:01:51;7.95;;;7.25;;
8297;SDS011;4187;42.778;23.242;2023-06-22T10:04:19;7.50;;;6.78;;
8297;SDS011;4187;42.778;23.242;2023-06-22T10:06:46;7.93;;;7.22;;
8297;SDS011;4187;42.778;23.242;2023-06-22T10:09:12;7.88;;;7.22;;
8297;SDS011;4187;42.778;23.242;2023-06-22T10:11:39;8.73;;;7.93;;
8297;SDS011;4187;42.778;23.242;2023-06-22T10:14:06;7.90;;;7.22;;
8297;SDS011;4187;42.778;23.242;2023-06-22T10:16:33;7.95;;;7.30;;
8297;SDS011;4187;42.778;23.242;2023-06-22T10:19:00;8.75;;;7.85;;
8297;SDS011;4187;42.778;23.242;2023-06-22T10:21:29;8.57;;;6.78;;
8297;SDS011;4187;42.778;23.242;2023-06-22T10:23:56;8.15;;;7.35;;
8297;SDS011;4187;42.778;23.242;2023-06-22T10:26:24;8.88;;;7.97;;
8297;SDS011;4187;42.778;23.242;2023-06-22T10:28:53;7.85;;;7.15;;
8297;SDS011;4187;42.778;23.242;2023-06-22T10:31:20;8.40;;;7.70;;
8297;SDS011;4187;42.778;23.242;2023-06-22T10:33:48;8.00;;;7.20;;
8297;SDS011;4187;42.778;23.242;2023-06-22T10:36:15;8.50;;;7.70;;
8297;SDS011;4187;42.778;23.242;2023-06-22T10:38:43;7.78;;;7.18;;
8297;SDS011;4187;42.778;23.242;2023-06-22T10:41:10;10.25;;;7.10;;
8297;SDS011;4187;42.778;23.242;2023-06-22T10:43:37;9.07;;;7.10;;
8297;SDS011;4187;42.778;23.242;2023-06-22T10:46:04;8.00;;;7.30;;
8297;SDS011;4187;42.778;23.242;2023-06-22T10:48:31;9.18;;;7.57;;
8297;SDS011;4187;42.778;23.242;2023-06-22T10:50:58;8.23;;;7.53;;
8297;SDS011;4187;42.778;23.242;2023-06-22T10:53:25;8.50;;;7.55;;
8297;SDS011;4187;42.778;23.242;2023-06-22T10:55:53;7.95;;;7.25;;
8297;SDS011;4187;42.778;23.242;2023-06-22T10:58:20;8.07;;;7.30;;
8297;SDS011;4187;42.778;23.242;2023-06-22T11:00:47;8.43;;;7.63;;
8297;SDS011;4187;42.778;23.242;2023-06-22T11:03:13;29.80;;;9.43;;
8297;SDS011;4187;42.778;23.242;2023-06-22T11:05:40;7.85;;;7.10;;
8297;SDS011;4187;42.778;23.242;2023-06-22T11:08:07;8.68;;;7.88;;
8297;SDS011;4187;42.778;23.242;2023-06-22T11:10:34;8.38;;;7.65;;
8297;SDS011;4187;42.778;23.242;2023-06-22T11:13:02;8.07;;;7.32;;
8297;SDS011;4187;42.778;23.242;2023-06-22T11:15:30;7.70;;;7.10;;
8297;SDS011;4187;42.778;23.242;2023-06-22T11:17:57;7.93;;;7.22;;
8297;SDS011;4187;42.778;23.242;2023-06-22T11:20:24;9.02;;;7.43;;
8297;SDS011;4187;42.778;23.242;2023-06-22T11:22:51;8.07;;;7.30;;
8297;SDS011;4187;42.778;23.242;2023-06-22T11:25:18;9.65;;;7.78;;
8297;SDS011;4187;42.778;23.242;2023-06-22T11:27:47;8.77;;;7.97;;
8297;SDS011;4187;42.778;23.242;2023-06-22T11:30:16;8.15;;;7.40;;
8297;SDS011;4187;42.778;23.242;2023-06-22T11:32:43;9.05;;;7.95;;
8297;SDS011;4187;42.778;23.242;2023-06-22T11:35:10;9.93;;;8.20;;
8297;SDS011;4187;42.778;23.242;2023-06-22T11:37:37;8.13;;;7.43;;
8297;SDS011;4187;42.778;23.242;2023-06-22T11:40:04;8.98;;;7.95;;
8297;SDS011;4187;42.778;23.242;2023-06-22T11:42:34;7.85;;;7.15;;
8297;SDS011;4187;42.778;23.242;2023-06-22T11:45:01;8.77;;;7.97;;
8297;SDS011;4187;42.778;23.242;2023-06-22T11:47:31;8.30;;;7.60;;
8297;SDS011;4187;42.778;23.242;2023-06-22T11:49:58;7.90;;;7.22;;
8297;SDS011;4187;42.778;23.242;2023-06-22T11:52:25;8.63;;;7.88;;
8297;SDS011;4187;42.778;23.242;2023-06-22T11:54:52;8.63;;;7.82;;
8297;SDS011;4187;42.778;23.242;2023-06-22T11:57:20;9.80;;;8.02;;
8297;SDS011;4187;42.778;23.242;2023-06-22T11:59:47;8.88;;;8.07;;
8297;SDS011;4187;42.778;23.242;2023-06-22T12:02:14;10.68;;;9.18;;
8297;SDS011;4187;42.778;23.242;2023-06-22T12:04:42;13.95;;;11.13;;
8297;SDS011;4187;42.778;23.242;2023-06-22T12:07:09;14.52;;;9.63;;
8297;SDS011;4187;42.778;23.242;2023-06-22T12:09:36;10.82;;;8.50;;
8297;SDS011;4187;42.778;23.242;2023-06-22T12:12:04;21.33;;;11.75;;
8297;SDS011;4187;42.778;23.242;2023-06-22T12:14:32;12.23;;;7.93;;
8297;SDS011;4187;42.778;23.242;2023-06-22T12:16:59;12.52;;;9.85;;
8297;SDS011;4187;42.778;23.242;2023-06-22T12:19:25;6.57;;;5.55;;
8297;SDS011;4187;42.778;23.242;2023-06-22T12:21:54;5.70;;;5.18;;
8297;SDS011;4187;42.778;23.242;2023-06-22T12:24:20;7.30;;;6.05;;
8297;SDS011;4187;42.778;23.242;2023-06-22T12:26:48;8.50;;;5.80;;
8297;SDS011;4187;42.778;23.242;2023-06-22T12:29:15;6.88;;;5.43;;
8297;SDS011;4187;42.778;23.242;2023-06-22T12:31:42;7.55;;;5.70;;
8297;SDS011;4187;42.778;23.242;2023-06-22T12:34:09;6.18;;;4.80;;
8297;SDS011;4187;42.778;23.242;2023-06-22T12:36:36;7.68;;;5.65;;
8297;SDS011;4187;42.778;23.242;2023-06-22T12:39:04;8.75;;;5.35;;
8297;SDS011;4187;42.778;23.242;2023-06-22T12:41:31;7.05;;;5.45;;
8297;SDS011;4187;42.778;23.242;2023-06-22T12:43:58;9.88;;;4.88;;
8297;SDS011;4187;42.778;23.242;2023-06-22T12:46:28;5.78;;;4.90;;
8297;SDS011;4187;42.778;23.242;2023-06-22T12:48:56;5.88;;;4.25;;
8297;SDS011;4187;42.778;23.242;2023-06-22T12:51:23;5.43;;;4.78;;
8297;SDS011;4187;42.778;23.242;2023-06-22T12:53:49;9.27;;;5.07;;
8297;SDS011;4187;42.778;23.242;2023-06-22T12:56:18;4.93;;;4.32;;
8297;SDS011;4187;42.778;23.242;2023-06-22T12:58:45;5.82;;;5.10;;
8297;SDS011;4187;42.778;23.242;2023-06-22T13:01:12;7.97;;;4.95;;
8297;SDS011;4187;42.778;23.242;2023-06-22T13:03:38;11.55;;;5.25;;
8297;SDS011;4187;42.778;23.242;2023-06-22T13:06:06;8.88;;;5.72;;
8297;SDS011;4187;42.778;23.242;2023-06-22T13:08:32;7.05;;;5.95;;
8297;SDS011;4187;42.778;23.242;2023-06-22T13:10:59;7.97;;;5.68;;
8297;SDS011;4187;42.778;23.242;2023-06-22T13:13:27;6.03;;;5.45;;
8297;SDS011;4187;42.778;23.242;2023-06-22T13:15:54;6.63;;;5.63;;
8297;SDS011;4187;42.778;23.242;2023-06-22T13:18:21;6.68;;;5.82;;
8297;SDS011;4187;42.778;23.242;2023-06-22T13:20:48;6.20;;;5.55;;
8297;SDS011;4187;42.778;23.242;2023-06-22T13:23:15;7.72;;;6.65;;
8297;SDS011;4187;42.778;23.242;2023-06-22T13:25:42;7.55;;;6.70;;
8297;SDS011;4187;42.778;23.242;2023-06-22T13:28:08;9.93;;;6.03;;
8297;SDS011;4187;42.778;23.242;2023-06-22T13:30:39;7.32;;;6.13;;
8297;SDS011;4187;42.778;23.242;2023-06-22T13:33:08;9.07;;;6.35;;
8297;SDS011;4187;42.778;23.242;2023-06-22T13:35:35;9.27;;;6.60;;
8297;SDS011;4187;42.778;23.242;2023-06-22T13:38:02;9.70;;;6.97;;
8297;SDS011;4187;42.778;23.242;2023-06-22T13:40:29;9.32;;;6.95;;
8297;SDS011;4187;42.778;23.242;2023-06-22T13:42:56;10.32;;;7.10;;
8297;SDS011;4187;42.778;23.242;2023-06-22T13:45:23;10.73;;;8.15;;
8297;SDS011;4187;42.778;23.242;2023-06-22T13:47:51;11.85;;;7.40;;
8297;SDS011;4187;42.778;23.242;2023-06-22T13:50:18;9.38;;;7.68;;
8297;SDS011;4187;42.778;23.242;2023-06-22T13:52:45;8.10;;;7.18;;
8297;SDS011;4187;42.778;23.242;2023-06-22T13:55:12;10.23;;;8.95;;
8297;SDS011;4187;42.778;23.242;2023-06-22T13:57:40;7.97;;;7.15;;
8297;SDS011;4187;42.778;23.242;2023-06-22T14:00:07;12.57;;;7.72;;
8297;SDS011;4187;42.778;23.242;2023-06-22T14:02:35;11.45;;;8.40;;
8297;SDS011;4187;42.778;23.242;2023-06-22T14:05:03;10.82;;;8.32;;
8297;SDS011;4187;42.778;23.242;2023-06-22T14:07:31;9.55;;;7.15;;
8297;SDS011;4187;42.778;23.242;2023-06-22T14:09:57;9.98;;;8.10;;
8297;SDS011;4187;42.778;23.242;2023-06-22T14:12:26;10.85;;;7.90;;
8297;SDS011;4187;42.778;23.242;2023-06-22T14:14:53;8.63;;;7.72;;
8297;SDS011;4187;42.778;23.242;2023-06-22T14:17:20;10.93;;;7.40;;
8297;SDS011;4187;42.778;23.242;2023-06-22T14:19:50;9.07;;;7.88;;
8297;SDS011;4187;42.778;23.242;2023-06-22T14:22:19;9.88;;;8.00;;
8297;SDS011;4187;42.778;23.242;2023-06-22T14:24:46;8.63;;;7.20;;
8297;SDS011;4187;42.778;23.242;2023-06-22T14:27:14;9.95;;;8.38;;
8297;SDS011;4187;42.778;23.242;2023-06-22T14:29:41;11.93;;;7.80;;
8297;SDS011;4187;42.778;23.242;2023-06-22T14:32:08;8.85;;;7.65;;
8297;SDS011;4187;42.778;23.242;2023-06-22T14:34:35;9.65;;;8.32;;
8297;SDS011;4187;42.778;23.242;2023-06-22T14:37:05;8.80;;;7.70;;
8297;SDS011;4187;42.778;23.242;2023-06-22T14:39:33;10.70;;;9.07;;
8297;SDS011;4187;42.778;23.242;2023-06-22T14:42:00;8.85;;;7.38;;
8297;SDS011;4187;42.778;23.242;2023-06-22T14:44:28;10.98;;;7.63;;
8297;SDS011;4187;42.778;23.242;2023-06-22T14:46:55;9.00;;;7.88;;
8297;SDS011;4187;42.778;23.242;2023-06-22T14:49:22;11.15;;;7.55;;
8297;SDS011;4187;42.778;23.242;2023-06-22T14:51:49;8.93;;;7.47;;
8297;SDS011;4187;42.778;23.242;2023-06-22T14:54:17;8.77;;;7.68;;